createdAt,value
2023-05-14T00:01:30.902Z,100136.38
2023-05-14T00:03:59.238Z,100139.72
2023-05-14T00:06:27.452Z,100127.06
2023-05-14T00:08:55.684Z,100132.88
2023-05-14T00:11:24.139Z,100123.56
2023-05-14T00:13:54.069Z,100125.50
2023-05-14T00:16:22.356Z,100125.75
2023-05-14T00:18:56.032Z,100129.53
2023-05-14T00:21:24.849Z,100125.00
2023-05-14T00:23:53.516Z,100122.63
2023-05-14T00:29:08.681Z,100119.63
2023-05-14T00:31:37.162Z,100113.91
2023-05-14T00:34:05.393Z,100123.25
2023-05-14T00:36:33.635Z,100136.75
2023-05-14T00:39:02.025Z,100123.75
2023-05-14T00:41:30.417Z,100127.91
2023-05-14T00:43:58.492Z,100134.09
2023-05-14T00:46:29.833Z,100123.63
2023-05-14T00:48:58.801Z,100119.19
2023-05-14T00:51:27.336Z,100109.25
2023-05-14T00:53:59.141Z,100099.44
2023-05-14T00:56:29.323Z,100095.16
2023-05-14T00:58:57.517Z,100086.13
2023-05-14T01:01:28.663Z,100083.47
2023-05-14T01:03:59.521Z,100086.25
2023-05-14T01:06:38.088Z,100087.75
2023-05-14T01:09:15.556Z,100092.16
2023-05-14T01:11:50.214Z,100088.13
2023-05-14T01:14:24.291Z,100079.63
2023-05-14T01:16:58.374Z,100076.34
2023-05-14T01:19:38.789Z,100073.91
2023-05-14T01:22:09.419Z,100069.25
2023-05-14T01:24:41.201Z,100063.38
2023-05-14T01:27:17.572Z,100065.75
2023-05-14T01:29:54.995Z,100081.19
2023-05-14T01:32:25.849Z,100080.22
2023-05-14T01:34:57.039Z,100071.19
2023-05-14T01:37:28.564Z,100081.47
2023-05-14T01:39:58.389Z,100071.28
2023-05-14T01:42:27.460Z,100067.97
2023-05-14T01:44:56.227Z,100066.19
2023-05-14T01:47:24.837Z,100057.31
2023-05-14T01:49:54.045Z,100062.31
2023-05-14T01:52:22.434Z,100064.00
2023-05-14T01:54:53.287Z,100054.41
2023-05-14T01:57:21.800Z,100060.84
2023-05-14T01:59:50.294Z,100046.00
2023-05-14T02:02:19.112Z,100046.72
2023-05-14T02:04:47.361Z,100051.78
2023-05-14T02:07:15.825Z,100062.72
2023-05-14T02:09:45.583Z,100056.22
2023-05-14T02:12:15.499Z,100065.03
2023-05-14T02:14:43.563Z,100063.66
2023-05-14T02:17:11.794Z,100069.38
2023-05-14T02:19:40.344Z,100076.56
2023-05-14T02:22:09.108Z,100065.03
2023-05-14T02:24:37.510Z,100067.03
2023-05-14T02:27:06.399Z,100076.69
2023-05-14T02:29:37.212Z,100073.41
2023-05-14T02:32:06.380Z,100074.03
2023-05-14T02:34:36.198Z,100063.88
2023-05-14T02:37:04.492Z,100060.09
2023-05-14T02:39:32.629Z,100064.25
2023-05-14T02:42:01.213Z,100056.59
2023-05-14T02:44:32.172Z,100052.63
2023-05-14T02:47:01.746Z,100058.88
2023-05-14T02:49:30.145Z,100072.47
2023-05-14T02:51:58.410Z,100082.50
2023-05-14T02:54:26.522Z,100093.84
2023-05-14T02:56:54.751Z,100113.06
2023-05-14T02:59:24.489Z,100097.19
2023-05-14T03:01:53.557Z,100104.38
2023-05-14T03:04:23.751Z,100110.13
2023-05-14T03:06:51.895Z,100114.97
2023-05-14T03:09:20.050Z,100122.16
2023-05-14T03:11:48.302Z,100125.06
2023-05-14T03:14:16.562Z,100117.59
2023-05-14T03:16:44.719Z,100113.66
2023-05-14T03:19:13.576Z,100109.22
2023-05-14T03:21:44.588Z,100108.66
2023-05-14T03:24:12.625Z,100113.28
2023-05-14T03:26:41.262Z,100109.44
2023-05-14T03:29:11.254Z,100110.78
2023-05-14T03:31:39.534Z,100111.59
2023-05-14T03:34:07.684Z,100108.75
2023-05-14T03:36:36.585Z,100121.78
2023-05-14T03:39:07.204Z,100117.81
2023-05-14T03:41:36.251Z,100128.66
2023-05-14T03:44:06.532Z,100134.53
2023-05-14T03:46:34.647Z,100139.81
2023-05-14T03:49:02.880Z,100141.75
2023-05-14T03:51:31.908Z,100130.72
2023-05-14T03:54:00.133Z,100129.41
2023-05-14T03:56:29.534Z,100132.06
2023-05-14T03:58:58.508Z,100129.69
2023-05-14T04:01:26.953Z,100130.59
2023-05-14T04:03:55.565Z,100127.56
2023-05-14T04:06:23.750Z,100132.09
2023-05-14T04:08:52.063Z,100137.19
2023-05-14T04:11:20.214Z,100137.97
2023-05-14T04:13:49.714Z,100134.13
2023-05-14T04:16:17.997Z,100138.09
2023-05-14T04:18:46.420Z,100129.41
2023-05-14T04:21:16.058Z,100136.97
2023-05-14T04:23:44.175Z,100135.63
2023-05-14T04:26:12.450Z,100134.69
2023-05-14T04:28:40.670Z,100128.41
2023-05-14T04:31:10.258Z,100118.03
2023-05-14T04:33:38.494Z,100126.81
2023-05-14T04:36:08.448Z,100126.75
2023-05-14T04:38:36.912Z,100131.56
2023-05-14T04:41:06.176Z,100130.69
2023-05-14T04:43:34.383Z,100141.16
2023-05-14T04:46:03.582Z,100157.81
2023-05-14T04:48:33.697Z,100172.63
2023-05-14T04:51:02.626Z,100165.53
2023-05-14T04:53:31.977Z,100162.38
2023-05-14T04:56:00.975Z,100161.28
2023-05-14T04:58:33.812Z,100149.53
2023-05-14T05:01:05.240Z,100132.03
2023-05-14T05:03:35.568Z,100135.50
2023-05-14T05:06:05.071Z,100133.03
2023-05-14T05:08:33.381Z,100146.88
2023-05-14T05:11:01.882Z,100162.56
2023-05-14T05:13:32.821Z,100159.00
2023-05-14T05:16:01.141Z,100149.59
2023-05-14T05:18:29.935Z,100142.66
2023-05-14T05:21:00.508Z,100138.63
2023-05-14T05:23:29.425Z,100146.84
2023-05-14T05:25:57.925Z,100151.59
2023-05-14T05:28:26.325Z,100164.97
2023-05-14T05:30:54.746Z,100167.34
2023-05-14T05:33:23.099Z,100162.16
2023-05-14T05:35:52.799Z,100159.13
2023-05-14T05:38:22.631Z,100172.19
2023-05-14T05:40:51.032Z,100181.03
2023-05-14T05:43:20.182Z,100183.75
2023-05-14T05:45:48.896Z,100189.06
2023-05-14T05:48:17.176Z,100184.56
2023-05-14T05:50:47.603Z,100172.19
2023-05-14T05:53:16.983Z,100174.16
2023-05-14T05:55:46.583Z,100180.66
2023-05-14T05:58:17.440Z,100189.94
2023-05-14T06:00:45.913Z,100195.97
2023-05-14T06:03:15.078Z,100205.72
2023-05-14T06:05:43.756Z,100212.03
2023-05-14T06:08:12.790Z,100222.72
2023-05-14T06:10:41.048Z,100219.13
2023-05-14T06:13:13.885Z,100224.66
2023-05-14T06:15:42.148Z,100224.50
2023-05-14T06:18:10.435Z,100232.56
2023-05-14T06:20:40.293Z,100225.91
2023-05-14T06:23:09.393Z,100236.13
2023-05-14T06:25:38.316Z,100233.41
2023-05-14T06:28:06.793Z,100236.06
2023-05-14T06:30:36.757Z,100244.25
2023-05-14T06:33:05.659Z,100238.78
2023-05-14T06:35:35.199Z,100255.09
2023-05-14T06:38:03.799Z,100260.94
2023-05-14T06:40:32.206Z,100267.19
2023-05-14T06:43:02.324Z,100279.75
2023-05-14T06:45:33.253Z,100286.47
2023-05-14T06:48:03.158Z,100299.19
2023-05-14T06:50:32.134Z,100295.47
2023-05-14T06:53:06.192Z,100298.91
2023-05-14T06:55:34.266Z,100302.06
2023-05-14T06:58:02.548Z,100301.38
2023-05-14T07:00:31.623Z,100297.50
2023-05-14T07:02:59.967Z,100296.56
2023-05-14T07:05:29.813Z,100294.06
2023-05-14T07:07:58.270Z,100303.25
2023-05-14T07:10:26.605Z,100287.53
2023-05-14T07:12:54.790Z,100287.41
2023-05-14T07:15:22.747Z,100276.13
2023-05-14T07:17:50.873Z,100275.75
2023-05-14T07:20:18.944Z,100280.44
2023-05-14T07:22:48.930Z,100274.09
2023-05-14T07:25:17.457Z,100273.00
2023-05-14T07:27:45.518Z,100274.25
2023-05-14T07:30:14.091Z,100268.59
2023-05-14T07:32:43.316Z,100249.03
2023-05-14T07:35:12.777Z,100251.09
2023-05-14T07:37:41.196Z,100243.94
2023-05-14T07:40:12.127Z,100240.88
2023-05-14T07:42:43.315Z,100243.72
2023-05-14T07:45:12.369Z,100251.25
2023-05-14T07:47:40.902Z,100265.34
2023-05-14T07:50:10.017Z,100266.09
2023-05-14T07:52:38.209Z,100268.53
2023-05-14T07:55:07.405Z,100278.19
2023-05-14T07:57:37.666Z,100270.41
2023-05-14T08:00:08.144Z,100270.75
2023-05-14T08:02:36.558Z,100262.38
2023-05-14T08:05:05.288Z,100257.31
2023-05-14T08:07:34.534Z,100244.75
2023-05-14T08:10:02.707Z,100249.41
2023-05-14T08:12:30.878Z,100265.47
2023-05-14T08:15:00.334Z,100273.88
2023-05-14T08:17:28.769Z,100281.75
2023-05-14T08:19:57.915Z,100282.88
2023-05-14T08:22:26.768Z,100296.50
2023-05-14T08:24:57.897Z,100298.53
2023-05-14T08:27:29.336Z,100317.88
2023-05-14T08:29:57.732Z,100316.06
2023-05-14T08:32:27.472Z,100332.03
2023-05-14T08:34:55.699Z,100340.75
2023-05-14T08:37:23.773Z,100342.75
2023-05-14T08:39:52.490Z,100340.97
2023-05-14T08:42:23.137Z,100329.06
2023-05-14T08:44:59.112Z,100328.22
2023-05-14T08:47:30.380Z,100332.75
2023-05-14T08:50:04.592Z,100333.50
2023-05-14T08:52:38.435Z,100339.16
2023-05-14T08:55:11.359Z,100335.41
2023-05-14T08:57:40.250Z,100335.88
2023-05-14T09:00:11.783Z,100345.69
2023-05-14T09:02:45.738Z,100324.19
2023-05-14T09:05:14.575Z,100325.59
2023-05-14T09:07:43.141Z,100311.47
2023-05-14T09:10:12.341Z,100298.72
2023-05-14T09:12:40.805Z,100311.88
2023-05-14T09:15:09.797Z,100309.25
2023-05-14T09:17:38.135Z,100306.22
2023-05-14T09:20:10.276Z,100305.09
2023-05-14T09:22:40.532Z,100311.25
2023-05-14T09:25:12.557Z,100312.22
2023-05-14T09:27:40.993Z,100313.22
2023-05-14T09:30:12.083Z,100301.34
2023-05-14T09:32:44.219Z,100295.56
2023-05-14T09:35:19.439Z,100305.09
2023-05-14T09:37:49.140Z,100304.53
2023-05-14T09:40:19.900Z,100301.69
2023-05-14T09:42:49.388Z,100298.19
2023-05-14T09:45:18.109Z,100289.94
2023-05-14T09:47:46.927Z,100276.00
2023-05-14T09:50:17.185Z,100268.19
2023-05-14T09:52:46.056Z,100249.19
2023-05-14T09:55:15.656Z,100258.22
2023-05-14T09:57:44.102Z,100252.91
2023-05-14T10:00:13.677Z,100246.81
2023-05-14T10:02:44.335Z,100245.44
2023-05-14T10:05:16.077Z,100243.31
2023-05-14T10:07:50.229Z,100247.13
2023-05-14T10:10:21.480Z,100250.31
2023-05-14T10:12:54.202Z,100250.97
2023-05-14T10:15:28.400Z,100256.63
2023-05-14T10:18:00.186Z,100251.38
2023-05-14T10:20:30.185Z,100251.00
2023-05-14T10:23:00.773Z,100255.94
2023-05-14T10:25:31.337Z,100261.56
2023-05-14T10:28:04.883Z,100263.84
2023-05-14T10:30:33.876Z,100267.13
2023-05-14T10:33:10.228Z,100257.50
2023-05-14T10:35:59.687Z,100250.09
2023-05-14T10:38:30.810Z,100240.69
2023-05-14T10:41:04.032Z,100241.38
2023-05-14T10:43:38.703Z,100235.16
2023-05-14T10:46:08.559Z,100226.53
2023-05-14T10:48:38.683Z,100215.78
2023-05-14T10:51:10.206Z,100214.19
2023-05-14T10:53:41.777Z,100204.50
2023-05-14T10:56:15.818Z,100214.13
2023-05-14T10:58:46.139Z,100210.25
2023-05-14T11:01:15.696Z,100203.25
2023-05-14T11:03:46.510Z,100187.75
2023-05-14T11:06:17.826Z,100195.22
2023-05-14T11:08:47.634Z,100193.66
2023-05-14T11:11:20.045Z,100198.75
2023-05-14T11:13:49.294Z,100196.28
2023-05-14T11:16:23.415Z,100184.84
2023-05-14T11:19:03.645Z,100187.66
2023-05-14T11:21:34.068Z,100190.22
2023-05-14T11:24:06.184Z,100179.94
2023-05-14T11:26:35.830Z,100184.13
2023-05-14T11:29:06.094Z,100182.78
2023-05-14T11:31:34.778Z,100183.09
2023-05-14T11:34:10.067Z,100175.34
2023-05-14T11:36:42.352Z,100175.38
2023-05-14T11:39:19.459Z,100180.38
2023-05-14T11:41:48.071Z,100190.19
2023-05-14T11:44:18.908Z,100192.66
2023-05-14T11:46:56.336Z,100197.53
2023-05-14T11:49:25.041Z,100188.28
2023-05-14T11:51:59.307Z,100189.09
2023-05-14T11:54:30.620Z,100186.75
2023-05-14T11:57:01.968Z,100198.63
2023-05-14T11:59:32.893Z,100191.34
2023-05-14T12:02:01.423Z,100197.25
2023-05-14T12:04:31.606Z,100190.91
2023-05-14T12:07:01.510Z,100191.19
2023-05-14T12:09:31.488Z,100199.28
2023-05-14T12:12:09.141Z,100203.09
2023-05-14T12:14:43.059Z,100194.66
2023-05-14T12:17:17.770Z,100177.56
2023-05-14T12:19:46.814Z,100181.06
2023-05-14T12:22:19.263Z,100174.84
2023-05-14T12:24:59.130Z,100168.69
2023-05-14T12:27:28.793Z,100162.22
2023-05-14T12:30:13.043Z,100162.94
2023-05-14T12:32:49.079Z,100154.00
2023-05-14T12:35:17.624Z,100147.69
2023-05-14T12:37:45.945Z,100135.25
2023-05-14T12:40:16.103Z,100132.59
2023-05-14T12:42:46.676Z,100123.19
2023-05-14T12:45:15.105Z,100109.13
2023-05-14T12:47:43.600Z,100109.31
2023-05-14T12:50:12.698Z,100102.91
2023-05-14T12:52:41.058Z,100104.09
2023-05-14T12:55:10.371Z,100111.91
2023-05-14T12:57:40.438Z,100113.81
2023-05-14T13:00:13.898Z,100109.94
2023-05-14T13:02:43.678Z,100108.06
2023-05-14T13:05:12.754Z,100103.22
2023-05-14T13:07:41.131Z,100100.59
2023-05-14T13:10:10.374Z,100102.38
2023-05-14T13:12:39.898Z,100086.81
2023-05-14T13:15:09.057Z,100083.88
2023-05-14T13:17:37.565Z,100100.63
2023-05-14T13:20:06.513Z,100098.56
2023-05-14T13:22:34.671Z,100081.88
2023-05-14T13:25:02.798Z,100073.50
2023-05-14T13:27:30.930Z,100068.22
2023-05-14T13:30:01.363Z,100063.75
2023-05-14T13:32:29.615Z,100064.44
2023-05-14T13:34:57.780Z,100066.22
2023-05-14T13:37:26.304Z,100067.25
2023-05-14T13:39:54.674Z,100075.19
2023-05-14T13:42:23.742Z,100066.03
2023-05-14T13:44:52.852Z,100075.28
2023-05-14T13:47:22.736Z,100074.50
2023-05-14T13:49:51.095Z,100076.16
2023-05-14T13:52:19.755Z,100075.63
2023-05-14T13:54:48.474Z,100068.28
2023-05-14T13:57:16.711Z,100063.19
2023-05-14T13:59:45.162Z,100061.19
2023-05-14T14:02:13.333Z,100059.13
2023-05-14T14:04:43.756Z,100054.41
2023-05-14T14:07:12.158Z,100067.75
2023-05-14T14:09:43.698Z,100063.44
2023-05-14T14:12:12.156Z,100056.78
2023-05-14T14:14:40.402Z,100059.00
2023-05-14T14:17:09.112Z,100051.41
2023-05-14T14:19:37.596Z,100051.56
2023-05-14T14:22:07.650Z,100046.50
2023-05-14T14:24:35.866Z,100041.25
2023-05-14T14:27:04.107Z,100043.03
2023-05-14T14:29:32.549Z,100030.09
2023-05-14T14:32:01.166Z,100023.84
2023-05-14T14:34:29.520Z,100021.47
2023-05-14T14:36:57.596Z,100015.97
2023-05-14T14:39:27.031Z,100010.91
2023-05-14T14:41:55.626Z,100014.75
2023-05-14T14:44:25.813Z,100015.97
2023-05-14T14:46:57.112Z,100012.03
2023-05-14T14:49:25.300Z,100006.47
2023-05-14T14:51:54.357Z,100012.13
2023-05-14T14:54:25.833Z,100000.69
2023-05-14T14:56:57.994Z,99996.09
2023-05-14T14:59:26.341Z,99996.09
2023-05-14T15:01:54.612Z,99993.00
2023-05-14T15:04:22.742Z,99989.72
2023-05-14T15:06:50.847Z,99982.13
2023-05-14T15:09:19.070Z,99976.75
2023-05-14T15:11:47.282Z,99975.84
2023-05-14T15:14:17.018Z,99975.25
2023-05-14T15:16:45.355Z,99964.31
2023-05-14T15:19:13.982Z,99970.81
2023-05-14T15:21:42.213Z,99973.94
2023-05-14T15:24:13.476Z,99972.03
2023-05-14T15:26:42.203Z,99965.63
2023-05-14T15:29:10.341Z,99980.06
2023-05-14T15:31:41.108Z,99975.47
2023-05-14T15:34:09.255Z,99980.38
2023-05-14T15:36:37.864Z,99983.38
2023-05-14T15:39:10.429Z,99985.75
2023-05-14T15:41:38.653Z,99980.50
2023-05-14T15:44:07.464Z,99978.50
2023-05-14T15:46:35.985Z,99979.22
2023-05-14T15:49:06.147Z,99974.50
2023-05-14T15:51:34.282Z,99978.38
2023-05-14T15:54:03.722Z,99972.84
2023-05-14T15:56:32.845Z,99974.72
2023-05-14T15:59:03.389Z,99970.19
2023-05-14T16:01:32.212Z,99974.63
2023-05-14T16:04:00.910Z,99977.69
2023-05-14T16:06:31.392Z,99973.25
2023-05-14T16:09:00.709Z,99978.91
2023-05-14T16:11:29.457Z,99980.75
2023-05-14T16:13:58.481Z,99982.28
2023-05-14T16:16:26.978Z,99986.84
2023-05-14T16:18:55.579Z,99981.88
2023-05-14T16:21:24.176Z,99977.94
2023-05-14T16:23:54.507Z,99974.50
2023-05-14T16:26:22.840Z,99975.09
2023-05-14T16:28:51.057Z,99988.81
2023-05-14T16:31:19.687Z,99986.31
2023-05-14T16:33:48.443Z,99983.25
2023-05-14T16:36:16.705Z,99992.28
2023-05-14T16:39:05.426Z,99996.09
2023-05-14T16:41:34.274Z,100001.53
2023-05-14T16:44:02.819Z,99997.72
2023-05-14T16:46:32.396Z,99991.44
2023-05-14T16:49:00.860Z,99992.59
2023-05-14T16:51:29.132Z,99986.25
2023-05-14T16:53:58.074Z,99987.41
2023-05-14T16:56:28.245Z,99999.53
2023-05-14T16:58:57.951Z,99995.13
2023-05-14T17:01:26.423Z,99990.31
2023-05-14T17:03:54.937Z,99985.13
2023-05-14T17:06:23.460Z,99982.16
2023-05-14T17:08:51.755Z,99973.28
2023-05-14T17:11:22.778Z,99961.53
2023-05-14T17:13:51.375Z,99958.72
2023-05-14T17:16:22.766Z,99955.81
2023-05-14T17:18:51.067Z,99964.16
2023-05-14T17:21:20.890Z,99967.34
2023-05-14T17:23:50.207Z,99971.63
2023-05-14T17:26:19.102Z,99979.19
2023-05-14T17:28:47.568Z,99970.75
2023-05-14T17:31:16.919Z,99973.03
2023-05-14T17:33:46.892Z,99969.25
2023-05-14T17:36:16.715Z,99977.94
2023-05-14T17:38:46.422Z,99982.53
2023-05-14T17:41:15.046Z,99993.28
2023-05-14T17:43:43.841Z,99993.81
2023-05-14T17:46:12.423Z,100001.00
2023-05-14T17:48:40.978Z,99999.88
2023-05-14T17:51:11.434Z,100011.34
2023-05-14T17:53:39.652Z,100002.91
2023-05-14T17:56:09.252Z,99996.97
2023-05-14T17:58:37.374Z,99988.03
2023-05-14T18:01:08.310Z,99983.06
2023-05-14T18:03:37.195Z,99981.41
2023-05-14T18:06:06.182Z,99977.78
2023-05-14T18:08:35.915Z,99967.63
2023-05-14T18:11:04.056Z,99981.66
2023-05-14T18:13:32.409Z,99976.22
2023-05-14T18:16:02.064Z,99969.81
2023-05-14T18:18:30.484Z,99962.09
2023-05-14T18:20:58.785Z,99951.16
2023-05-14T18:23:29.140Z,99945.03
2023-05-14T18:26:00.301Z,99932.28
2023-05-14T18:28:29.400Z,99921.69
2023-05-14T18:30:57.694Z,99920.34
2023-05-14T18:33:26.253Z,99909.94
2023-05-14T18:35:54.754Z,99923.97
2023-05-14T18:38:23.097Z,99945.25
2023-05-14T18:40:51.486Z,99947.91
2023-05-14T18:43:21.589Z,99945.28
2023-05-14T18:46:00.418Z,99946.31
2023-05-14T18:48:29.404Z,99948.94
2023-05-14T18:50:57.659Z,99943.16
2023-05-14T18:53:27.624Z,99944.13
2023-05-14T18:55:56.137Z,99937.81
2023-05-14T18:58:25.852Z,99937.13
2023-05-14T19:00:54.218Z,99934.94
2023-05-14T19:03:23.232Z,99945.88
2023-05-14T19:05:51.933Z,99937.47
2023-05-14T19:08:22.080Z,99929.16
2023-05-14T19:10:51.131Z,99920.03
2023-05-14T19:13:19.555Z,99901.38
2023-05-14T19:15:49.004Z,99893.13
2023-05-14T19:18:17.778Z,99902.06
2023-05-14T19:20:47.129Z,99906.47
2023-05-14T19:23:15.747Z,99913.22
2023-05-14T19:25:43.993Z,99926.97
2023-05-14T19:28:12.344Z,99921.69
2023-05-14T19:30:40.700Z,99919.31
2023-05-14T19:33:10.769Z,99916.94
2023-05-14T19:35:39.102Z,99907.84
2023-05-14T19:38:07.269Z,99911.09
2023-05-14T19:40:35.482Z,99907.91
2023-05-14T19:43:04.163Z,99895.50
2023-05-14T19:45:32.784Z,99894.44
2023-05-14T19:48:01.307Z,99895.66
2023-05-14T19:50:32.459Z,99899.69
2023-05-14T19:53:01.046Z,99882.53
2023-05-14T19:55:29.610Z,99876.56
2023-05-14T19:57:57.864Z,99869.97
2023-05-14T20:00:27.089Z,99877.34
2023-05-14T20:02:59.703Z,99870.59
2023-05-14T20:05:30.693Z,99868.22
2023-05-14T20:07:58.936Z,99877.84
2023-05-14T20:10:27.722Z,99873.94
2023-05-14T20:12:56.263Z,99886.00
2023-05-14T20:15:25.967Z,99875.75
2023-05-14T20:17:54.978Z,99877.69
2023-05-14T20:20:24.274Z,99882.25
2023-05-14T20:22:54.846Z,99893.03
2023-05-14T20:25:23.218Z,99881.28
2023-05-14T20:27:52.636Z,99884.69
2023-05-14T20:30:21.181Z,99876.66
2023-05-14T20:32:49.309Z,99883.97
2023-05-14T20:35:18.836Z,99878.56
2023-05-14T20:37:47.316Z,99861.47
2023-05-14T20:40:17.138Z,99858.69
2023-05-14T20:42:45.318Z,99862.97
2023-05-14T20:45:13.824Z,99861.66
2023-05-14T20:47:42.581Z,99870.13
2023-05-14T20:50:10.923Z,99872.72
2023-05-14T20:52:39.001Z,99875.94
2023-05-14T20:55:13.718Z,99874.81
2023-05-14T20:57:43.802Z,99873.50
2023-05-14T21:00:13.698Z,99866.38
2023-05-14T21:02:43.008Z,99869.78
2023-05-14T21:05:13.965Z,99860.50
2023-05-14T21:07:42.207Z,99851.66
2023-05-14T21:10:11.583Z,99843.19
2023-05-14T21:12:39.740Z,99852.56
2023-05-14T21:15:11.027Z,99851.31
2023-05-14T21:17:39.959Z,99857.09
2023-05-14T21:20:09.412Z,99853.94
2023-05-14T21:22:37.531Z,99853.94
2023-05-14T21:25:06.338Z,99843.78
2023-05-14T21:27:34.915Z,99845.34
2023-05-14T21:30:03.033Z,99853.16
2023-05-14T21:32:32.703Z,99853.94
2023-05-14T21:35:00.843Z,99843.88
2023-05-14T21:37:29.221Z,99835.38
2023-05-14T21:39:57.340Z,99840.91
2023-05-14T21:42:25.537Z,99841.88
2023-05-14T21:44:53.867Z,99830.75
2023-05-14T21:47:22.310Z,99839.00
2023-05-14T21:49:51.781Z,99836.63
2023-05-14T21:52:19.923Z,99830.47
2023-05-14T21:54:47.994Z,99818.91
2023-05-14T21:57:17.914Z,99813.59
2023-05-14T21:59:46.182Z,99814.38
2023-05-14T22:02:14.388Z,99823.66
2023-05-14T22:04:42.528Z,99813.94
2023-05-14T22:07:12.267Z,99817.88
2023-05-14T22:09:40.398Z,99824.53
2023-05-14T22:12:09.229Z,99813.66
2023-05-14T22:14:38.321Z,99811.72
2023-05-14T22:17:06.641Z,99797.38
2023-05-14T22:19:34.779Z,99797.28
2023-05-14T22:22:03.459Z,99793.34
2023-05-14T22:24:33.057Z,99793.34
2023-05-14T22:27:01.126Z,99794.22
2023-05-14T22:29:29.289Z,99782.91
2023-05-14T22:31:57.511Z,99786.44
2023-05-14T22:34:25.784Z,99788.34
2023-05-14T22:36:53.941Z,99781.84
2023-05-14T22:39:22.088Z,99776.44
2023-05-14T22:41:55.201Z,99782.56
2023-05-14T22:44:23.538Z,99784.13
2023-05-14T22:46:51.869Z,99786.84
2023-05-14T22:49:20.105Z,99782.56
2023-05-14T22:51:48.234Z,99781.84
2023-05-14T22:54:16.705Z,99779.50
2023-05-14T22:56:45.777Z,99769.44
2023-05-14T22:59:15.507Z,99771.63
2023-05-14T23:01:43.662Z,99772.34
2023-05-14T23:04:11.770Z,99783.53
2023-05-14T23:06:40.084Z,99773.44
2023-05-14T23:09:08.136Z,99767.69
2023-05-14T23:11:36.337Z,99781.34
2023-05-14T23:14:05.169Z,99781.34
2023-05-14T23:16:35.372Z,99773.13
2023-05-14T23:19:03.804Z,99776.28
2023-05-14T23:21:32.670Z,99776.34
2023-05-14T23:24:01.332Z,99768.19
2023-05-14T23:26:29.535Z,99767.06
2023-05-14T23:28:57.640Z,99767.75
2023-05-14T23:31:25.877Z,99772.41
2023-05-14T23:33:55.466Z,99769.63
2023-05-14T23:36:23.946Z,99760.75
2023-05-14T23:38:52.801Z,99763.09
2023-05-14T23:41:21.820Z,99766.78
2023-05-14T23:43:50.046Z,99748.91
2023-05-14T23:46:18.322Z,99755.06
2023-05-14T23:48:46.541Z,99745.84
2023-05-14T23:51:16.055Z,99743.75
2023-05-14T23:53:44.171Z,99750.25
2023-05-14T23:56:13.005Z,99755.22
2023-05-14T23:58:41.146Z,99743.13
